createdAt,value
2019-03-22T00:00:26.051Z,10.63
2019-03-22T00:02:55.996Z,10.97
2019-03-22T00:05:24.625Z,10.07
2019-03-22T00:07:56.123Z,10.70
2019-03-22T00:10:24.546Z,10.17
2019-03-22T00:12:53.075Z,10.10
2019-03-22T00:15:21.797Z,10.20
2019-03-22T00:17:50.485Z,10.47
2019-03-22T00:20:19.124Z,10.37
2019-03-22T00:22:47.804Z,10.53
2019-03-22T00:25:16.353Z,10.40
2019-03-22T00:27:44.858Z,10.83
2019-03-22T00:30:13.230Z,10.73
2019-03-22T00:32:41.757Z,10.60
2019-03-22T00:35:10.193Z,10.53
2019-03-22T00:37:38.456Z,10.57
2019-03-22T00:40:07.118Z,10.10
2019-03-22T00:42:35.364Z,9.83
2019-03-22T00:45:04.309Z,10.37
2019-03-22T00:47:32.917Z,9.87
2019-03-22T00:50:01.332Z,9.90
2019-03-22T00:52:29.857Z,10.50
2019-03-22T00:54:58.587Z,10.07
2019-03-22T00:57:28.785Z,9.50
2019-03-22T00:59:57.623Z,10.10
2019-03-22T01:02:26.443Z,10.43
2019-03-22T01:04:54.758Z,9.40
2019-03-22T01:07:23.434Z,9.60
2019-03-22T01:09:51.868Z,9.90
2019-03-22T01:12:20.298Z,10.10
2019-03-22T01:14:48.702Z,10.70
2019-03-22T01:17:17.543Z,9.70
2019-03-22T01:19:46.023Z,10.03
2019-03-22T01:22:14.516Z,10.27
2019-03-22T01:24:42.968Z,9.50
2019-03-22T01:27:11.587Z,10.47
2019-03-22T01:29:40.104Z,10.43
2019-03-22T01:32:08.901Z,11.10
2019-03-22T01:34:37.105Z,10.37
2019-03-22T01:37:06.544Z,10.43
2019-03-22T01:39:35.066Z,10.63
2019-03-22T01:42:03.913Z,11.30
2019-03-22T01:44:32.427Z,11.20
2019-03-22T01:47:01.279Z,10.50
2019-03-22T01:49:29.708Z,11.27
2019-03-22T01:51:58.316Z,11.87
2019-03-22T01:54:26.884Z,11.67
2019-03-22T01:56:55.445Z,11.40
2019-03-22T01:59:23.724Z,11.27
2019-03-22T02:01:52.157Z,10.50
2019-03-22T02:04:20.432Z,11.63
2019-03-22T02:06:48.831Z,11.40
2019-03-22T02:09:17.274Z,11.90
2019-03-22T02:11:45.779Z,12.40
2019-03-22T02:14:14.131Z,11.80
2019-03-22T02:16:42.667Z,11.67
2019-03-22T02:19:11.417Z,11.90
2019-03-22T02:21:40.636Z,11.70
2019-03-22T02:24:09.072Z,11.37
2019-03-22T02:26:37.784Z,11.30
2019-03-22T02:29:06.315Z,12.13
2019-03-22T02:31:34.795Z,12.53
2019-03-22T02:34:03.299Z,12.00
2019-03-22T02:36:31.888Z,11.47
2019-03-22T02:39:00.384Z,11.60
2019-03-22T02:41:28.763Z,11.60
2019-03-22T02:43:57.219Z,12.13
2019-03-22T02:46:25.880Z,11.43
2019-03-22T02:48:54.477Z,12.13
2019-03-22T02:51:23.321Z,11.57
2019-03-22T02:53:51.791Z,11.40
2019-03-22T02:56:20.417Z,11.90
2019-03-22T02:58:50.245Z,10.97
2019-03-22T03:01:19.028Z,11.13
2019-03-22T03:03:47.481Z,11.80
2019-03-22T03:06:16.126Z,11.53
2019-03-22T03:08:44.593Z,11.17
2019-03-22T03:11:13.169Z,10.60
2019-03-22T03:13:41.709Z,11.87
2019-03-22T03:16:10.304Z,11.40
2019-03-22T03:18:38.693Z,11.77
2019-03-22T03:21:07.170Z,12.47
2019-03-22T03:23:35.599Z,11.77
2019-03-22T03:26:05.264Z,12.10
2019-03-22T03:28:37.090Z,12.20
2019-03-22T03:31:04.466Z,12.00
2019-03-22T03:33:32.962Z,12.63
2019-03-22T03:36:01.305Z,12.40
2019-03-22T03:38:29.866Z,11.50
2019-03-22T03:40:58.382Z,11.57
2019-03-22T03:43:26.802Z,11.30
2019-03-22T03:45:55.148Z,11.47
2019-03-22T03:48:23.365Z,11.80
2019-03-22T03:50:51.956Z,12.33
2019-03-22T03:53:20.784Z,12.13
2019-03-22T03:55:49.343Z,12.33
2019-03-22T03:58:18.755Z,12.17
2019-03-22T04:00:47.358Z,13.23
2019-03-22T04:03:15.937Z,12.07
2019-03-22T04:05:44.452Z,11.57
2019-03-22T04:08:12.979Z,12.50
2019-03-22T04:10:41.744Z,12.00
2019-03-22T04:13:10.588Z,11.90
2019-03-22T04:15:39.440Z,12.30
2019-03-22T04:18:07.911Z,11.97
2019-03-22T04:20:36.321Z,12.30
2019-03-22T04:23:04.842Z,12.73
2019-03-22T04:25:33.439Z,13.20
2019-03-22T04:28:02.006Z,11.80
2019-03-22T04:30:30.568Z,12.17
2019-03-22T04:32:59.340Z,12.23
2019-03-22T04:35:27.892Z,12.43
2019-03-22T04:37:56.359Z,12.70
2019-03-22T04:40:26.202Z,12.33
2019-03-22T04:42:56.132Z,13.17
2019-03-22T04:45:25.579Z,12.63
2019-03-22T04:47:58.812Z,13.20
2019-03-22T04:50:29.189Z,13.43
2019-03-22T04:52:57.747Z,12.83
2019-03-22T04:55:26.724Z,13.47
2019-03-22T04:57:55.850Z,13.07
2019-03-22T05:00:24.491Z,13.23
2019-03-22T05:02:53.446Z,13.53
2019-03-22T05:05:22.021Z,13.07
2019-03-22T05:07:51.481Z,12.70
2019-03-22T05:10:20.805Z,13.33
2019-03-22T05:12:49.890Z,12.57
2019-03-22T05:15:19.503Z,13.30
2019-03-22T05:17:48.198Z,13.07
2019-03-22T05:20:17.267Z,13.53
2019-03-22T05:22:47.334Z,13.13
2019-03-22T05:25:15.807Z,13.20
2019-03-22T05:27:45.449Z,15.10
2019-03-22T05:30:43.690Z,13.53
2019-03-22T05:33:12.172Z,14.03
2019-03-22T05:35:40.674Z,12.97
2019-03-22T05:38:09.373Z,13.67
2019-03-22T05:40:37.896Z,13.17
2019-03-22T05:43:06.595Z,13.83
2019-03-22T05:45:35.091Z,12.47
2019-03-22T05:48:03.746Z,12.90
2019-03-22T05:50:32.198Z,12.43
2019-03-22T05:53:00.683Z,13.67
2019-03-22T05:55:29.390Z,13.47
2019-03-22T05:57:57.591Z,14.93
2019-03-22T06:00:26.080Z,13.90
2019-03-22T06:02:54.561Z,15.20
2019-03-22T06:05:23.148Z,13.93
2019-03-22T06:07:52.066Z,17.47
2019-03-22T06:10:20.526Z,14.30
2019-03-22T06:12:49.180Z,15.90
2019-03-22T06:15:17.581Z,16.30
2019-03-22T06:17:51.588Z,15.93
2019-03-22T06:20:16.543Z,15.40
2019-03-22T06:22:44.962Z,15.60
2019-03-22T06:25:13.451Z,15.73
2019-03-22T06:27:41.825Z,15.23
2019-03-22T06:30:10.391Z,15.13
2019-03-22T06:32:38.987Z,14.53
2019-03-22T06:35:07.560Z,13.70
2019-03-22T06:37:35.952Z,15.07
2019-03-22T06:40:04.765Z,13.77
2019-03-22T06:42:33.405Z,15.40
2019-03-22T06:45:01.924Z,15.70
2019-03-22T06:47:30.407Z,15.20
2019-03-22T06:49:58.837Z,14.37
2019-03-22T06:52:27.545Z,14.70
2019-03-22T06:54:56.557Z,13.17
2019-03-22T06:57:25.111Z,13.73
2019-03-22T07:00:05.519Z,12.67
2019-03-22T07:02:24.179Z,12.50
2019-03-22T07:04:52.590Z,11.67
2019-03-22T07:07:21.035Z,12.93
2019-03-22T07:09:49.495Z,12.60
2019-03-22T07:12:18.098Z,12.07
2019-03-22T07:14:46.535Z,10.23
2019-03-22T07:17:15.278Z,11.57
2019-03-22T07:19:43.683Z,9.90
2019-03-22T07:22:12.163Z,9.83
2019-03-22T07:24:40.500Z,9.23
2019-03-22T07:27:08.842Z,10.30
2019-03-22T07:29:37.368Z,9.80
2019-03-22T07:32:05.718Z,9.83
2019-03-22T07:34:35.917Z,8.67
2019-03-22T07:37:04.224Z,9.00
2019-03-22T07:39:32.734Z,9.20
2019-03-22T07:42:01.174Z,10.60
2019-03-22T07:44:29.677Z,10.97
2019-03-22T07:46:58.080Z,10.93
2019-03-22T07:49:26.423Z,9.67
2019-03-22T07:51:55.273Z,10.33
2019-03-22T07:54:23.659Z,10.63
2019-03-22T07:56:52.030Z,10.77
2019-03-22T07:59:20.511Z,10.90
2019-03-22T08:01:49.083Z,11.00
2019-03-22T08:04:17.534Z,9.70
2019-03-22T08:06:46.241Z,10.13
2019-03-22T08:09:14.704Z,10.17
2019-03-22T08:11:43.118Z,11.17
2019-03-22T08:14:11.677Z,11.30
2019-03-22T08:16:40.062Z,11.37
2019-03-22T08:19:08.421Z,11.13
2019-03-22T08:21:37.168Z,10.40
2019-03-22T08:24:05.511Z,10.90
2019-03-22T08:26:33.928Z,11.10
2019-03-22T08:29:02.470Z,10.10
2019-03-22T08:31:30.775Z,11.10
2019-03-22T08:33:59.377Z,10.73
2019-03-22T08:36:28.089Z,10.27
2019-03-22T08:38:56.591Z,10.97
2019-03-22T08:41:24.953Z,10.63
2019-03-22T08:43:53.461Z,10.32
2019-03-22T08:46:21.924Z,10.45
2019-03-22T08:48:51.334Z,10.28
2019-03-22T08:51:19.756Z,9.45
2019-03-22T08:53:55.107Z,10.15
2019-03-22T08:56:18.473Z,9.95
2019-03-22T08:58:46.946Z,9.63
2019-03-22T09:01:15.523Z,9.65
2019-03-22T09:03:43.977Z,8.90
2019-03-22T09:06:12.459Z,10.15
2019-03-22T09:08:40.893Z,9.10
2019-03-22T09:11:09.300Z,9.18
2019-03-22T09:13:37.904Z,9.48
2019-03-22T09:16:06.266Z,9.33
2019-03-22T09:18:34.708Z,10.08
2019-03-22T09:21:03.478Z,9.65
2019-03-22T09:23:32.067Z,9.78
2019-03-22T09:26:00.583Z,9.33
2019-03-22T09:28:29.240Z,9.90
2019-03-22T09:31:09.742Z,9.70
2019-03-22T09:33:28.006Z,10.00
2019-03-22T09:35:56.531Z,10.20
2019-03-22T09:38:25.064Z,9.90
2019-03-22T09:40:53.380Z,9.73
2019-03-22T09:43:21.761Z,9.73
2019-03-22T09:45:50.268Z,10.25
2019-03-22T09:48:18.818Z,10.55
2019-03-22T09:50:47.435Z,10.30
2019-03-22T09:53:16.915Z,9.50
2019-03-22T09:55:45.385Z,11.12
2019-03-22T09:58:13.962Z,9.98
2019-03-22T10:00:42.365Z,9.63
2019-03-22T10:03:10.935Z,10.55
2019-03-22T10:05:39.295Z,10.88
2019-03-22T10:08:07.895Z,10.72
2019-03-22T10:10:36.327Z,10.90
2019-03-22T10:13:04.847Z,10.15
2019-03-22T10:15:33.349Z,10.35
2019-03-22T10:18:02.210Z,10.38
2019-03-22T10:20:30.754Z,9.48
2019-03-22T10:22:59.276Z,9.78
2019-03-22T10:25:27.730Z,10.28
2019-03-22T10:27:56.159Z,9.75
2019-03-22T10:30:24.659Z,10.35
2019-03-22T10:32:53.059Z,8.88
2019-03-22T10:35:26.262Z,8.58
2019-03-22T10:38:00.083Z,10.28
2019-03-22T10:40:22.150Z,10.13
2019-03-22T10:42:50.781Z,9.88
2019-03-22T10:45:19.339Z,11.38
2019-03-22T10:47:47.904Z,10.03
2019-03-22T10:50:16.540Z,11.63
2019-03-22T10:52:48.196Z,10.28
2019-03-22T10:55:29.322Z,10.72
2019-03-22T10:57:47.316Z,10.25
2019-03-22T11:00:16.925Z,10.88
2019-03-22T11:02:45.489Z,14.28
2019-03-22T11:05:13.984Z,9.33
2019-03-22T11:07:42.666Z,10.40
2019-03-22T11:10:13.539Z,9.55
2019-03-22T11:12:41.756Z,8.25
2019-03-22T11:15:11.211Z,7.78
2019-03-22T11:17:39.680Z,9.23
2019-03-22T11:20:10.292Z,9.55
2019-03-22T11:22:38.981Z,8.80
2019-03-22T11:25:09.137Z,9.23
2019-03-22T11:27:37.698Z,8.95
2019-03-22T11:30:08.078Z,9.90
2019-03-22T11:32:37.088Z,8.68
2019-03-22T11:35:06.926Z,9.88
2019-03-22T11:37:35.573Z,9.10
2019-03-22T11:40:04.947Z,9.58
2019-03-22T11:42:33.594Z,8.88
2019-03-22T11:45:02.126Z,8.95
2019-03-22T11:47:31.619Z,8.55
2019-03-22T11:49:59.885Z,9.38
2019-03-22T11:52:28.696Z,8.38
2019-03-22T11:54:57.336Z,8.90
2019-03-22T11:57:25.957Z,8.85
2019-03-22T11:59:54.200Z,9.40
2019-03-22T12:02:24.087Z,9.25
2019-03-22T12:04:53.651Z,9.10
2019-03-22T12:07:22.011Z,10.03
2019-03-22T12:09:50.500Z,9.60
2019-03-22T12:12:19.021Z,8.93
2019-03-22T12:14:47.643Z,9.58
2019-03-22T12:17:16.382Z,9.18
2019-03-22T12:19:44.839Z,9.35
2019-03-22T12:22:13.458Z,10.03
2019-03-22T12:24:41.693Z,9.38
2019-03-22T12:27:11.216Z,8.28
2019-03-22T12:29:39.576Z,9.45
2019-03-22T12:32:08.079Z,9.45
2019-03-22T12:34:36.462Z,10.13
2019-03-22T12:37:05.037Z,9.33
2019-03-22T12:39:33.585Z,9.50
2019-03-22T12:42:01.949Z,8.63
2019-03-22T12:44:30.276Z,9.10
2019-03-22T12:46:58.970Z,9.03
2019-03-22T12:49:29.135Z,8.90
2019-03-22T12:51:57.846Z,9.33
2019-03-22T12:54:26.559Z,8.88
2019-03-22T12:56:55.287Z,9.43
2019-03-22T12:59:23.828Z,8.73
2019-03-22T13:01:52.460Z,9.33
2019-03-22T13:04:21.019Z,8.38
2019-03-22T13:06:49.630Z,8.03
2019-03-22T13:09:18.052Z,8.18
2019-03-22T13:11:46.923Z,8.85
2019-03-22T13:14:15.440Z,8.35
2019-03-22T13:16:44.013Z,9.10
2019-03-22T13:19:12.323Z,9.13
2019-03-22T13:21:40.870Z,9.25
2019-03-22T13:24:09.624Z,8.08
2019-03-22T13:26:38.069Z,8.28
2019-03-22T13:29:06.584Z,7.50
2019-03-22T13:31:34.892Z,7.30
2019-03-22T13:34:03.547Z,8.40
2019-03-22T13:36:32.289Z,8.33
2019-03-22T13:39:00.853Z,8.85
2019-03-22T13:41:31.122Z,8.58
2019-03-22T13:43:59.768Z,7.80
2019-03-22T13:46:28.460Z,7.33
2019-03-22T13:48:56.979Z,7.80
2019-03-22T13:51:25.354Z,7.20
2019-03-22T13:53:53.804Z,7.33
2019-03-22T13:56:22.337Z,7.37
2019-03-22T13:58:50.869Z,7.28
2019-03-22T14:01:19.258Z,7.60
2019-03-22T14:03:47.806Z,6.90
2019-03-22T14:06:16.467Z,6.95
2019-03-22T14:08:44.969Z,7.35
2019-03-22T14:11:13.617Z,7.62
2019-03-22T14:13:42.039Z,6.53
2019-03-22T14:16:10.654Z,8.05
2019-03-22T14:18:39.037Z,7.65
2019-03-22T14:21:07.542Z,8.13
2019-03-22T14:23:35.832Z,7.22
2019-03-22T14:26:04.453Z,6.87
2019-03-22T14:28:33.340Z,6.65
2019-03-22T14:31:01.688Z,7.05
2019-03-22T14:33:30.288Z,6.60
2019-03-22T14:35:59.229Z,7.12
2019-03-22T14:38:27.567Z,7.00
2019-03-22T14:40:56.222Z,6.60
2019-03-22T14:43:24.799Z,6.37
2019-03-22T14:45:56.005Z,6.53
2019-03-22T14:48:24.557Z,6.90
2019-03-22T14:50:54.748Z,6.33
2019-03-22T14:53:23.002Z,5.90
2019-03-22T14:55:51.594Z,6.70
2019-03-22T14:58:20.085Z,6.70
2019-03-22T15:00:49.074Z,5.57
2019-03-22T15:03:24.068Z,5.80
2019-03-22T15:05:54.775Z,5.37
2019-03-22T15:08:23.437Z,5.30
2019-03-22T15:10:51.790Z,5.77
2019-03-22T15:13:23.314Z,6.40
2019-03-22T15:16:10.059Z,5.87
2019-03-22T15:18:56.416Z,5.93
2019-03-22T15:21:59.459Z,5.60
2019-03-22T15:24:59.673Z,5.63
2019-03-22T15:27:46.084Z,5.80
2019-03-22T15:30:32.797Z,5.40
2019-03-22T15:33:34.218Z,5.57
2019-03-22T15:36:09.981Z,5.53
2019-03-22T15:39:00.998Z,5.00
2019-03-22T15:41:30.604Z,5.87
2019-03-22T15:44:00.045Z,5.30
2019-03-22T15:46:28.583Z,5.13
2019-03-22T15:48:57.197Z,5.13
2019-03-22T15:51:25.828Z,4.67
2019-03-22T15:53:54.365Z,4.83
2019-03-22T15:56:22.972Z,5.23
2019-03-22T15:58:51.438Z,4.93
2019-03-22T16:01:19.984Z,4.70
2019-03-22T16:03:48.504Z,5.00
2019-03-22T16:06:16.882Z,4.17
2019-03-22T16:08:45.349Z,3.40
2019-03-22T16:11:13.917Z,3.80
2019-03-22T16:13:42.908Z,3.70
2019-03-22T16:16:11.482Z,3.67
2019-03-22T16:18:39.983Z,4.17
2019-03-22T16:21:08.550Z,3.90
2019-03-22T16:23:36.937Z,4.47
2019-03-22T16:26:05.635Z,5.47
2019-03-22T16:28:34.271Z,6.00
2019-03-22T16:31:02.865Z,4.90
2019-03-22T16:33:31.389Z,5.17
2019-03-22T16:35:59.826Z,4.67
2019-03-22T16:38:28.464Z,4.50
2019-03-22T16:40:56.874Z,4.50
2019-03-22T16:43:25.509Z,3.97
2019-03-22T16:45:53.999Z,4.00
2019-03-22T16:48:22.478Z,3.57
2019-03-22T16:50:51.214Z,3.50
2019-03-22T16:53:19.680Z,3.40
2019-03-22T16:55:48.405Z,3.07
2019-03-22T16:58:16.738Z,3.90
2019-03-22T17:00:45.215Z,3.93
2019-03-22T17:03:13.652Z,4.57
2019-03-22T17:05:42.475Z,6.13
2019-03-22T17:08:11.021Z,5.33
2019-03-22T17:10:39.525Z,6.93
2019-03-22T17:13:08.074Z,7.00
2019-03-22T17:15:36.591Z,7.87
2019-03-22T17:18:05.101Z,8.40
2019-03-22T17:20:33.616Z,8.10
2019-03-22T17:23:02.037Z,5.43
2019-03-22T17:25:30.931Z,6.13
2019-03-22T17:27:59.415Z,6.10
2019-03-22T17:30:27.869Z,6.20
2019-03-22T17:32:56.401Z,6.17
2019-03-22T17:35:24.941Z,6.17
2019-03-22T17:37:53.279Z,5.97
2019-03-22T17:40:21.633Z,5.90
2019-03-22T17:42:50.056Z,5.77
2019-03-22T17:45:18.613Z,5.80
2019-03-22T17:47:47.393Z,6.33
2019-03-22T17:50:16.305Z,7.33
2019-03-22T17:52:44.827Z,8.17
2019-03-22T17:55:13.392Z,8.13
2019-03-22T17:57:41.838Z,7.37
2019-03-22T18:00:10.567Z,8.53
2019-03-22T18:02:39.194Z,8.33
2019-03-22T18:05:10.171Z,8.43
2019-03-22T18:07:38.551Z,7.57
2019-03-22T18:10:07.560Z,7.80
2019-03-22T18:12:36.132Z,8.37
2019-03-22T18:15:05.846Z,8.97
2019-03-22T18:17:34.490Z,9.60
2019-03-22T18:20:03.564Z,9.63
2019-03-22T18:22:32.016Z,9.40
2019-03-22T18:25:00.347Z,7.07
2019-03-22T18:27:31.688Z,6.03
2019-03-22T18:30:00.038Z,6.60
2019-03-22T18:32:28.500Z,6.20
2019-03-22T18:34:57.812Z,6.33
2019-03-22T18:37:26.247Z,6.17
2019-03-22T18:39:54.479Z,6.30
2019-03-22T18:42:22.749Z,6.63
2019-03-22T18:44:51.259Z,7.20
2019-03-22T18:47:19.851Z,6.47
2019-03-22T18:49:48.195Z,7.47
2019-03-22T18:52:16.718Z,7.07
2019-03-22T18:54:45.266Z,7.20
2019-03-22T18:57:13.867Z,7.00
2019-03-22T18:59:42.137Z,7.20
2019-03-22T19:02:10.994Z,6.50
2019-03-22T19:04:43.912Z,6.60
2019-03-22T19:07:09.734Z,6.60
2019-03-22T19:09:38.401Z,7.27
2019-03-22T19:12:07.037Z,8.63
2019-03-22T19:14:35.391Z,8.30
2019-03-22T19:17:04.133Z,6.80
2019-03-22T19:19:32.422Z,7.47
2019-03-22T19:22:00.799Z,7.43
2019-03-22T19:24:29.308Z,7.37
2019-03-22T19:26:57.715Z,7.60
2019-03-22T19:29:25.947Z,7.23
2019-03-22T19:31:54.431Z,7.10
2019-03-22T19:34:22.957Z,6.63
2019-03-22T19:36:51.521Z,7.07
2019-03-22T19:39:19.899Z,6.93
2019-03-22T19:41:49.591Z,6.50
2019-03-22T19:44:17.936Z,6.90
2019-03-22T19:46:46.444Z,6.53
2019-03-22T19:49:15.169Z,6.73
2019-03-22T19:51:43.516Z,7.00
2019-03-22T19:54:11.921Z,6.97
2019-03-22T19:56:40.467Z,7.93
2019-03-22T19:59:09.119Z,7.10
2019-03-22T20:01:37.584Z,7.20
2019-03-22T20:04:06.265Z,7.07
2019-03-22T20:06:34.699Z,7.30
2019-03-22T20:09:07.026Z,7.43
2019-03-22T20:11:36.038Z,7.43
2019-03-22T20:14:04.497Z,7.93
2019-03-22T20:16:33.241Z,38.30
2019-03-22T20:19:01.681Z,8.43
2019-03-22T20:21:31.794Z,8.40
2019-03-22T20:24:00.054Z,9.63
2019-03-22T20:26:28.434Z,8.83
2019-03-22T20:28:56.974Z,7.77
2019-03-22T20:31:25.488Z,7.23
2019-03-22T20:33:54.266Z,8.13
2019-03-22T20:36:22.688Z,7.90
2019-03-22T20:38:50.989Z,8.10
2019-03-22T20:41:19.458Z,7.43
2019-03-22T20:43:48.037Z,7.40
2019-03-22T20:46:16.664Z,7.53
2019-03-22T20:48:45.312Z,7.53
2019-03-22T20:51:13.890Z,7.77
2019-03-22T20:53:42.430Z,8.20
2019-03-22T20:56:10.936Z,8.53
2019-03-22T20:58:39.885Z,8.27
2019-03-22T21:01:08.180Z,9.10
2019-03-22T21:03:37.004Z,9.40
2019-03-22T21:06:05.704Z,9.07
2019-03-22T21:08:34.224Z,8.57
2019-03-22T21:11:02.623Z,8.57
2019-03-22T21:13:31.155Z,9.33
2019-03-22T21:15:59.839Z,9.27
2019-03-22T21:18:28.353Z,9.53
2019-03-22T21:20:56.724Z,9.10
2019-03-22T21:23:35.763Z,8.73
2019-03-22T21:25:55.554Z,8.97
2019-03-22T21:28:23.951Z,8.63
2019-03-22T21:30:52.344Z,8.73
2019-03-22T21:33:20.690Z,9.20
2019-03-22T21:35:49.029Z,9.23
2019-03-22T21:38:17.569Z,9.80
2019-03-22T21:40:45.896Z,9.53
2019-03-22T21:43:14.195Z,9.83
2019-03-22T21:45:42.692Z,9.53
2019-03-22T21:48:11.058Z,10.37
2019-03-22T21:50:39.348Z,10.70
2019-03-22T21:53:07.893Z,10.00
2019-03-22T21:55:36.431Z,10.60
2019-03-22T21:58:04.874Z,10.83
2019-03-22T22:00:33.401Z,10.20
2019-03-22T22:03:04.711Z,9.83
2019-03-22T22:05:34.111Z,9.23
2019-03-22T22:08:02.898Z,8.57
2019-03-22T22:10:31.210Z,8.07
2019-03-22T22:12:59.655Z,7.67
2019-03-22T22:15:28.177Z,7.53
2019-03-22T22:17:56.548Z,7.67
2019-03-22T22:20:28.995Z,7.20
2019-03-22T22:22:55.197Z,6.83
2019-03-22T22:25:23.808Z,6.83
2019-03-22T22:27:52.200Z,7.07
2019-03-22T22:30:20.687Z,6.87
2019-03-22T22:32:49.042Z,7.30
2019-03-22T22:35:17.419Z,7.23
2019-03-22T22:37:46.131Z,6.63
2019-03-22T22:40:14.520Z,7.77
2019-03-22T22:42:43.082Z,7.53
2019-03-22T22:45:11.588Z,7.07
2019-03-22T22:47:39.958Z,7.77
2019-03-22T22:50:09.085Z,7.97
2019-03-22T22:52:37.527Z,8.40
2019-03-22T22:55:06.489Z,8.40
2019-03-22T22:57:34.986Z,7.53
2019-03-22T23:00:03.668Z,8.33
2019-03-22T23:02:32.601Z,8.17
2019-03-22T23:05:00.987Z,7.70
2019-03-22T23:07:29.529Z,8.27
2019-03-22T23:09:57.969Z,8.57
2019-03-22T23:12:26.299Z,7.37
2019-03-22T23:14:54.576Z,8.03
2019-03-22T23:17:22.892Z,8.20
2019-03-22T23:19:51.665Z,8.10
2019-03-22T23:22:20.029Z,8.40
2019-03-22T23:24:48.626Z,9.60
2019-03-22T23:27:16.976Z,8.80
2019-03-22T23:29:45.610Z,9.00
2019-03-22T23:32:14.143Z,9.07
2019-03-22T23:34:42.578Z,9.07
2019-03-22T23:37:10.968Z,8.93
2019-03-22T23:39:39.607Z,8.03
2019-03-22T23:42:08.062Z,8.77
2019-03-22T23:44:36.592Z,8.73
2019-03-22T23:47:04.962Z,8.47
2019-03-22T23:49:33.663Z,8.70
2019-03-22T23:52:02.167Z,8.30
2019-03-22T23:54:30.561Z,8.60
2019-03-22T23:56:59.029Z,8.37
2019-03-22T23:59:27.700Z,8.90
